createdAt,value
2018-02-08T00:02:00.907Z,95222.23
2018-02-08T00:04:29.193Z,95223.50
2018-02-08T00:06:57.486Z,95223.23
2018-02-08T00:09:25.780Z,95229.62
2018-02-08T00:11:54.063Z,95229.59
2018-02-08T00:14:22.337Z,95231.09
2018-02-08T00:16:50.625Z,95229.61
2018-02-08T00:19:18.900Z,95228.86
2018-02-08T00:21:47.956Z,95225.14
2018-02-08T00:24:16.240Z,95224.88
2018-02-08T00:26:44.531Z,95227.62
2018-02-08T00:29:12.804Z,95218.16
2018-02-08T00:31:41.809Z,95219.70
2018-02-08T00:34:10.080Z,95226.52
2018-02-08T00:36:38.361Z,95231.55
2018-02-08T00:39:07.445Z,95229.93
2018-02-08T00:41:35.728Z,95227.98
2018-02-08T00:44:04.013Z,95225.87
2018-02-08T00:46:32.297Z,95226.50
2018-02-08T00:49:00.575Z,95230.61
2018-02-08T00:51:28.861Z,95235.16
2018-02-08T00:53:57.150Z,95228.52
2018-02-08T00:56:25.445Z,95232.30
2018-02-08T00:58:53.737Z,95236.72
2018-02-08T01:01:22.011Z,95240.36
2018-02-08T01:03:50.291Z,95242.20
2018-02-08T01:06:18.564Z,95240.62
2018-02-08T01:08:46.856Z,95242.45
2018-02-08T01:11:15.137Z,95241.77
2018-02-08T01:13:43.457Z,95239.16
2018-02-08T01:16:11.736Z,95245.70
2018-02-08T01:18:40.048Z,95239.88
2018-02-08T01:21:08.321Z,95231.50
2018-02-08T01:23:36.621Z,95236.00
2018-02-08T01:26:04.893Z,95244.55
2018-02-08T01:28:33.193Z,95238.78
2018-02-08T01:31:01.456Z,95241.80
2018-02-08T01:33:29.731Z,95236.56
2018-02-08T01:35:58.018Z,95246.61
2018-02-08T01:38:26.320Z,95241.26
2018-02-08T01:40:54.610Z,95238.44
2018-02-08T01:43:22.891Z,95240.58
2018-02-08T01:45:51.179Z,95233.77
2018-02-08T01:48:20.247Z,95231.77
2018-02-08T01:50:48.542Z,95235.87
2018-02-08T01:53:17.593Z,95235.20
2018-02-08T01:55:45.875Z,95234.11
2018-02-08T01:58:14.157Z,95233.94
2018-02-08T02:00:42.472Z,95233.35
2018-02-08T02:03:10.756Z,95235.20
2018-02-08T02:05:39.063Z,95242.29
2018-02-08T02:08:07.327Z,95235.88
2018-02-08T02:10:35.690Z,95235.09
2018-02-08T02:13:03.973Z,95235.36
2018-02-08T02:15:33.057Z,95235.93
2018-02-08T02:18:01.336Z,95233.16
2018-02-08T02:20:29.856Z,95228.44
2018-02-08T02:22:58.906Z,95226.84
2018-02-08T02:25:27.196Z,95228.40
2018-02-08T02:27:55.490Z,95221.16
2018-02-08T02:30:23.783Z,95223.19
2018-02-08T02:32:52.119Z,95221.55
2018-02-08T02:35:20.370Z,95219.36
2018-02-08T02:37:48.640Z,95230.13
2018-02-08T02:40:16.919Z,95220.81
2018-02-08T02:42:45.195Z,95226.09
2018-02-08T02:45:13.484Z,95225.17
2018-02-08T02:47:41.761Z,95224.69
2018-02-08T02:50:10.044Z,95225.61
2018-02-08T02:52:39.098Z,95216.69
2018-02-08T02:55:07.381Z,95216.80
2018-02-08T02:57:35.651Z,95214.73
2018-02-08T03:00:03.936Z,95213.01
2018-02-08T03:02:32.221Z,95210.28
2018-02-08T03:05:00.487Z,95204.26
2018-02-08T03:07:28.763Z,95201.47
2018-02-08T03:09:57.042Z,95214.02
2018-02-08T03:12:25.324Z,95211.10
2018-02-08T03:14:53.600Z,95213.95
2018-02-08T03:17:21.887Z,95209.71
2018-02-08T03:19:50.151Z,95211.08
2018-02-08T03:22:18.444Z,95205.97
2018-02-08T03:24:46.725Z,95207.38
2018-02-08T03:27:15.011Z,95214.05
2018-02-08T03:29:43.303Z,95207.38
2018-02-08T03:32:11.595Z,95202.22
2018-02-08T03:34:39.874Z,95209.13
2018-02-08T03:37:08.163Z,95198.16
2018-02-08T03:39:36.442Z,95201.03
2018-02-08T03:42:04.749Z,95207.55
2018-02-08T03:44:33.012Z,95209.38
2018-02-08T03:47:02.063Z,95215.59
2018-02-08T03:49:30.339Z,95211.89
2018-02-08T03:51:58.628Z,95218.81
2018-02-08T03:54:27.214Z,95216.30
2018-02-08T03:56:55.491Z,95213.28
2018-02-08T03:59:23.773Z,95213.38
2018-02-08T04:01:52.075Z,95218.97
2018-02-08T04:04:20.345Z,95224.94
2018-02-08T04:06:49.396Z,95227.79
2018-02-08T04:09:17.684Z,95227.89
2018-02-08T04:11:45.970Z,95236.61
2018-02-08T04:14:14.263Z,95231.48
2018-02-08T04:16:42.557Z,95231.98
2018-02-08T04:19:10.879Z,95227.70
2018-02-08T04:21:39.960Z,95235.74
2018-02-08T04:24:08.362Z,95240.47
2018-02-08T04:26:36.716Z,95240.72
2018-02-08T04:29:05.008Z,95251.94
2018-02-08T04:31:33.289Z,95252.98
2018-02-08T04:34:01.585Z,95252.98
2018-02-08T04:36:29.892Z,95267.86
2018-02-08T04:39:15.839Z,95264.26
2018-02-08T04:42:02.423Z,95263.93
2018-02-08T04:44:48.551Z,95270.88
2018-02-08T04:47:28.361Z,95264.23
2018-02-08T04:49:56.648Z,95265.28
2018-02-08T04:52:24.938Z,95266.59
2018-02-08T04:54:56.535Z,95267.94
2018-02-08T04:57:24.842Z,95268.50
2018-02-08T04:59:53.148Z,95264.35
2018-02-08T05:02:22.180Z,95275.87
2018-02-08T05:04:50.474Z,95269.62
2018-02-08T05:07:18.755Z,95270.92
2018-02-08T05:09:47.081Z,95272.66
2018-02-08T05:12:15.365Z,95272.76
2018-02-08T05:14:46.691Z,95281.47
2018-02-08T05:17:14.969Z,95281.70
2018-02-08T05:19:43.262Z,95283.25
2018-02-08T05:22:11.536Z,95281.09
2018-02-08T05:24:40.594Z,95289.44
2018-02-08T05:27:08.908Z,95286.56
2018-02-08T05:29:37.187Z,95282.73
2018-02-08T05:32:05.459Z,95279.95
2018-02-08T05:34:33.735Z,95284.02
2018-02-08T05:37:02.021Z,95284.80
2018-02-08T05:39:30.318Z,95281.45
2018-02-08T05:41:58.603Z,95283.86
2018-02-08T05:44:26.894Z,95284.48
2018-02-08T05:46:55.163Z,95279.33
2018-02-08T05:49:23.444Z,95281.39
2018-02-08T05:51:51.746Z,95287.44
2018-02-08T05:54:20.036Z,95284.44
2018-02-08T05:56:48.316Z,95287.31
2018-02-08T05:59:16.599Z,95283.91
2018-02-08T06:01:44.883Z,95290.67
2018-02-08T06:04:13.166Z,95296.50
2018-02-08T06:06:42.212Z,95297.25
2018-02-08T06:09:10.467Z,95296.59
2018-02-08T06:11:38.746Z,95304.61
2018-02-08T06:14:07.816Z,95298.92
2018-02-08T06:16:36.118Z,95294.36
2018-02-08T06:19:04.393Z,95298.70
2018-02-08T06:21:32.685Z,95295.30
2018-02-08T06:24:00.951Z,95301.94
2018-02-08T06:26:29.240Z,95299.98
2018-02-08T06:28:57.512Z,95292.91
2018-02-08T06:31:25.786Z,95296.08
2018-02-08T06:33:54.056Z,95301.55
2018-02-08T06:36:23.133Z,95302.28
2018-02-08T06:38:51.417Z,95296.66
2018-02-08T06:41:19.685Z,95296.67
2018-02-08T06:43:47.969Z,95299.55
2018-02-08T06:46:16.254Z,95309.30
2018-02-08T06:48:44.576Z,95308.50
2018-02-08T06:51:12.851Z,95303.81
2018-02-08T06:53:41.135Z,95309.40
2018-02-08T06:56:09.405Z,95309.51
2018-02-08T06:58:37.687Z,95307.94
2018-02-08T07:01:05.969Z,95310.86
2018-02-08T07:03:34.255Z,95314.55
2018-02-08T07:06:02.519Z,95315.05
2018-02-08T07:08:31.563Z,95319.69
2018-02-08T07:10:59.855Z,95324.84
2018-02-08T07:13:28.133Z,95330.41
2018-02-08T07:15:56.403Z,95336.35
2018-02-08T07:18:25.445Z,95334.87
2018-02-08T07:20:53.710Z,95339.28
2018-02-08T07:23:22.000Z,95335.87
2018-02-08T07:26:10.007Z,95334.23
2018-02-08T07:28:38.288Z,95336.85
2018-02-08T07:31:06.570Z,95340.09
2018-02-08T07:33:34.857Z,95346.22
2018-02-08T07:36:03.127Z,95339.73
2018-02-08T07:38:31.414Z,95346.76
2018-02-08T07:40:59.696Z,95345.09
2018-02-08T07:43:27.963Z,95347.74
2018-02-08T07:45:56.252Z,95346.05
2018-02-08T07:48:25.296Z,95350.94
2018-02-08T07:50:53.585Z,95350.68
2018-02-08T07:53:22.627Z,95352.41
2018-02-08T07:55:50.901Z,95351.23
2018-02-08T07:58:19.194Z,95355.52
2018-02-08T08:00:47.463Z,95355.72
2018-02-08T08:03:15.736Z,95357.46
2018-02-08T08:05:44.000Z,95360.15
2018-02-08T08:08:12.297Z,95357.80
2018-02-08T08:10:40.579Z,95359.66
2018-02-08T08:13:08.915Z,95359.10
2018-02-08T08:15:37.184Z,95352.59
2018-02-08T08:18:05.482Z,95358.89
2018-02-08T08:20:33.747Z,95359.93
2018-02-08T08:23:02.033Z,95365.58
2018-02-08T08:25:30.308Z,95357.21
2018-02-08T08:27:58.602Z,95349.02
2018-02-08T08:30:26.864Z,95355.08
2018-02-08T08:32:55.912Z,95340.79
2018-02-08T08:35:24.179Z,95339.89
2018-02-08T08:37:52.467Z,95344.77
2018-02-08T08:40:20.723Z,95345.38
2018-02-08T08:42:49.775Z,95346.31
2018-02-08T08:45:18.053Z,95350.95
2018-02-08T08:47:46.341Z,95359.87
2018-02-08T08:50:14.621Z,95361.91
2018-02-08T08:52:42.919Z,95364.52
2018-02-08T08:55:11.187Z,95354.59
2018-02-08T08:57:40.261Z,95358.81
2018-02-08T09:00:08.523Z,95359.89
2018-02-08T09:02:36.808Z,95363.52
2018-02-08T09:05:05.087Z,95354.31
2018-02-08T09:07:33.385Z,95368.05
2018-02-08T09:10:01.655Z,95366.74
2018-02-08T09:12:29.956Z,95378.64
2018-02-08T09:14:58.271Z,95379.49
2018-02-08T09:17:26.563Z,95370.20
2018-02-08T09:19:54.839Z,95379.24
2018-02-08T09:22:23.127Z,95374.55
2018-02-08T09:24:52.103Z,95378.45
2018-02-08T09:27:20.387Z,95376.36
2018-02-08T09:29:48.680Z,95375.11
2018-02-08T09:32:16.972Z,95380.97
2018-02-08T09:34:45.259Z,95380.19
2018-02-08T09:37:13.544Z,95376.77
2018-02-08T09:39:41.824Z,95369.16
2018-02-08T09:42:10.849Z,95367.73
2018-02-08T09:44:39.903Z,95379.53
2018-02-08T09:47:08.164Z,95374.51
2018-02-08T09:49:36.439Z,95383.59
2018-02-08T09:52:04.701Z,95388.46
2018-02-08T09:54:32.967Z,95386.02
2018-02-08T09:57:02.035Z,95393.15
2018-02-08T09:59:30.318Z,95386.69
2018-02-08T10:01:58.583Z,95387.66
2018-02-08T10:04:26.867Z,95384.80
2018-02-08T10:06:55.174Z,95388.13
2018-02-08T10:09:23.462Z,95390.86
2018-02-08T10:11:51.728Z,95397.39
2018-02-08T10:14:20.005Z,95398.58
2018-02-08T10:16:49.036Z,95399.95
2018-02-08T10:19:17.318Z,95402.42
2018-02-08T10:21:45.579Z,95399.03
2018-02-08T10:24:14.627Z,95391.50
2018-02-08T10:26:43.669Z,95398.55
2018-02-08T10:29:11.937Z,95392.84
2018-02-08T10:31:40.233Z,95404.27
2018-02-08T10:34:08.519Z,95393.55
2018-02-08T10:36:36.792Z,95398.82
2018-02-08T10:39:05.818Z,95401.34
2018-02-08T10:41:34.097Z,95390.27
2018-02-08T10:44:02.372Z,95391.07
2018-02-08T10:46:30.636Z,95391.33
2018-02-08T10:48:58.933Z,95392.08
2018-02-08T10:51:27.194Z,95389.46
2018-02-08T10:53:56.235Z,95389.22
2018-02-08T10:56:25.285Z,95390.88
2018-02-08T10:58:53.555Z,95390.55
2018-02-08T11:01:21.823Z,95379.78
2018-02-08T11:03:50.096Z,95385.48
2018-02-08T11:06:18.364Z,95382.52
2018-02-08T11:08:47.395Z,95381.67
2018-02-08T11:11:15.669Z,95379.74
2018-02-08T11:13:43.953Z,95377.93
2018-02-08T11:16:12.997Z,95376.05
2018-02-08T11:18:41.274Z,95384.03
2018-02-08T11:21:09.556Z,95379.06
2018-02-08T11:23:37.836Z,95376.08
2018-02-08T11:26:06.104Z,95384.25
2018-02-08T11:28:35.170Z,95383.72
2018-02-08T11:31:03.443Z,95388.38
2018-02-08T11:33:31.839Z,95389.48
2018-02-08T11:36:00.161Z,95387.82
2018-02-08T11:38:28.460Z,95389.55
2018-02-08T11:40:57.491Z,95391.67
2018-02-08T11:43:25.797Z,95394.72
2018-02-08T11:45:54.945Z,95393.84
2018-02-08T11:48:23.227Z,95396.48
2018-02-08T11:50:51.514Z,95387.67
2018-02-08T11:53:19.800Z,95391.00
2018-02-08T11:55:48.071Z,95391.57
2018-02-08T11:58:16.364Z,95393.46
2018-02-08T12:00:44.618Z,95389.46
2018-02-08T12:03:12.903Z,95390.39
2018-02-08T12:05:41.171Z,95388.84
2018-02-08T12:08:10.232Z,95387.44
2018-02-08T12:10:38.503Z,95387.38
2018-02-08T12:13:06.785Z,95382.98
2018-02-08T12:15:35.070Z,95382.70
2018-02-08T12:18:03.381Z,95383.84
2018-02-08T12:20:32.438Z,95383.47
2018-02-08T12:23:01.471Z,95382.07
2018-02-08T12:25:29.749Z,95372.29
2018-02-08T12:27:58.813Z,95375.19
2018-02-08T12:30:27.100Z,95370.34
2018-02-08T12:32:55.364Z,95370.50
2018-02-08T12:35:23.638Z,95367.99
2018-02-08T12:37:51.912Z,95369.39
2018-02-08T12:40:20.176Z,95363.53
2018-02-08T12:42:48.440Z,95367.53
2018-02-08T12:45:16.712Z,95362.84
2018-02-08T12:47:44.993Z,95362.70
2018-02-08T12:50:13.322Z,95359.66
2018-02-08T12:52:41.535Z,95366.87
2018-02-08T12:55:10.568Z,95363.51
2018-02-08T12:57:38.842Z,95354.28
2018-02-08T13:00:07.100Z,95363.92
2018-02-08T13:02:35.355Z,95358.89
2018-02-08T13:05:03.628Z,95346.19
2018-02-08T13:07:31.892Z,95351.46
2018-02-08T13:10:00.165Z,95347.33
2018-02-08T13:12:30.030Z,95347.34
2018-02-08T13:14:58.299Z,95343.11
2018-02-08T13:17:26.959Z,95344.77
2018-02-08T13:19:55.225Z,95345.70
2018-02-08T13:22:23.485Z,95342.66
2018-02-08T13:24:51.756Z,95339.69
2018-02-08T13:27:20.025Z,95336.55
2018-02-08T13:29:49.085Z,95331.16
2018-02-08T13:32:17.382Z,95339.34
2018-02-08T13:34:45.656Z,95346.27
2018-02-08T13:37:13.933Z,95347.83
2018-02-08T13:39:42.236Z,95347.54
2018-02-08T13:42:11.680Z,95351.75
2018-02-08T13:44:39.964Z,95349.14
2018-02-08T13:50:23.754Z,95346.04
2018-02-08T13:52:56.513Z,95356.30
2018-02-08T13:55:30.212Z,95348.22
2018-02-08T13:57:58.483Z,95346.91
2018-02-08T14:03:34.320Z,95346.95
2018-02-08T14:06:02.602Z,95351.34
2018-02-08T14:08:31.637Z,95346.27
2018-02-08T14:10:59.911Z,95346.84
2018-02-08T14:13:28.177Z,95344.45
2018-02-08T14:15:56.458Z,95359.55
2018-02-08T14:18:24.727Z,95350.91
2018-02-08T14:20:53.771Z,95342.89
2018-02-08T14:23:22.044Z,95342.20
2018-02-08T14:25:50.331Z,95344.48
2018-02-08T14:28:18.618Z,95340.08
2018-02-08T14:30:46.896Z,95341.38
2018-02-08T14:33:15.173Z,95335.23
2018-02-08T14:35:44.211Z,95339.88
2018-02-08T14:38:12.485Z,95348.47
2018-02-08T14:40:40.770Z,95338.61
2018-02-08T14:43:09.049Z,95343.17
2018-02-08T14:45:38.099Z,95343.80
2018-02-08T14:48:06.370Z,95340.98
2018-02-08T14:50:34.655Z,95346.84
2018-02-08T14:53:02.970Z,95344.91
2018-02-08T14:55:31.252Z,95343.03
2018-02-08T14:57:59.529Z,95345.54
2018-02-08T15:00:27.812Z,95337.03
2018-02-08T15:02:56.101Z,95336.25
2018-02-08T15:05:24.385Z,95326.37
2018-02-08T15:07:52.666Z,95328.48
2018-02-08T15:10:20.957Z,95329.37
2018-02-08T15:12:49.220Z,95328.25
2018-02-08T15:15:18.282Z,95329.37
2018-02-08T15:17:46.564Z,95328.47
2018-02-08T15:20:14.852Z,95331.62
2018-02-08T15:22:43.129Z,95328.91
2018-02-08T15:25:11.412Z,95331.16
2018-02-08T15:27:39.705Z,95333.41
2018-02-08T15:30:07.983Z,95331.70
2018-02-08T15:32:36.247Z,95330.55
2018-02-08T15:35:05.314Z,95328.66
2018-02-08T15:37:33.577Z,95335.27
2018-02-08T15:40:01.857Z,95327.58
2018-02-08T15:42:30.139Z,95329.96
2018-02-08T15:44:58.407Z,95324.73
2018-02-08T15:47:26.729Z,95325.00
2018-02-08T15:49:54.996Z,95316.59
2018-02-08T15:52:24.049Z,95319.39
2018-02-08T15:54:52.320Z,95313.44
2018-02-08T15:57:20.600Z,95315.88
2018-02-08T15:59:49.035Z,95322.28
2018-02-08T16:02:17.313Z,95330.72
2018-02-08T16:04:45.590Z,95329.14
2018-02-08T16:07:13.859Z,95333.33
2018-02-08T16:09:42.151Z,95332.64
2018-02-08T16:12:10.438Z,95334.83
2018-02-08T16:14:38.712Z,95339.07
2018-02-08T16:17:07.015Z,95339.66
2018-02-08T16:19:35.303Z,95338.36
2018-02-08T16:22:03.601Z,95337.56
2018-02-08T16:24:31.877Z,95342.77
2018-02-08T16:27:00.147Z,95337.37
2018-02-08T16:29:28.419Z,95337.10
2018-02-08T16:31:56.701Z,95341.50
2018-02-08T16:34:24.968Z,95342.31
2018-02-08T16:36:53.252Z,95342.67
2018-02-08T16:39:22.408Z,95342.98
2018-02-08T16:41:52.456Z,95345.38
2018-02-08T16:44:20.733Z,95340.91
2018-02-08T16:46:49.021Z,95344.00
2018-02-08T16:49:17.304Z,95339.27
2018-02-08T16:51:46.349Z,95342.02
2018-02-08T16:54:14.626Z,95341.23
2018-02-08T16:56:42.909Z,95339.21
2018-02-08T16:59:11.159Z,95340.05
2018-02-08T17:01:39.445Z,95328.06
2018-02-08T17:04:07.715Z,95339.03
2018-02-08T17:06:36.984Z,95335.56
2018-02-08T17:09:05.259Z,95332.52
2018-02-08T17:11:34.316Z,95338.34
2018-02-08T17:14:02.590Z,95334.30
2018-02-08T17:16:30.864Z,95330.77
2018-02-08T17:18:59.149Z,95329.70
2018-02-08T17:21:27.431Z,95329.48
2018-02-08T17:23:55.701Z,95321.27
2018-02-08T17:26:24.804Z,95323.97
2018-02-08T17:28:53.823Z,95331.34
2018-02-08T17:31:22.090Z,95332.55
2018-02-08T17:33:51.121Z,95338.59
2018-02-08T17:36:19.456Z,95336.48
2018-02-08T17:38:47.717Z,95332.59
2018-02-08T17:41:16.893Z,95338.19
2018-02-08T17:43:45.931Z,95336.52
2018-02-08T17:46:14.217Z,95336.15
2018-02-08T17:48:42.485Z,95340.36
2018-02-08T17:51:11.515Z,95332.91
2018-02-08T17:53:39.784Z,95340.84
2018-02-08T17:56:08.157Z,95348.52
2018-02-08T17:58:36.552Z,95345.88
2018-02-08T18:01:04.773Z,95346.42
2018-02-08T18:03:33.993Z,95351.80
2018-02-08T18:06:02.269Z,95348.75
2018-02-08T18:08:30.538Z,95353.27
2018-02-08T18:10:58.822Z,95356.53
2018-02-08T18:13:27.859Z,95355.33
2018-02-08T18:15:56.904Z,95355.20
2018-02-08T18:18:25.181Z,95350.83
2018-02-08T18:20:53.458Z,95360.19
2018-02-08T18:23:21.727Z,95357.73
2018-02-08T18:25:49.989Z,95359.58
2018-02-08T18:28:18.259Z,95352.48
2018-02-08T18:30:47.812Z,95354.18
2018-02-08T18:33:16.101Z,95350.13
2018-02-08T18:35:44.392Z,95357.84
2018-02-08T18:38:12.669Z,95357.83
2018-02-08T18:40:40.928Z,95360.14
2018-02-08T18:43:09.196Z,95367.16
2018-02-08T18:45:37.462Z,95371.70
2018-02-08T18:48:05.731Z,95378.04
2018-02-08T18:50:33.994Z,95372.64
2018-02-08T18:53:03.041Z,95367.32
2018-02-08T18:55:31.301Z,95365.00
2018-02-08T18:57:59.576Z,95361.52
2018-02-08T19:00:31.355Z,95361.17
2018-02-08T19:03:00.387Z,95356.61
2018-02-08T19:05:28.666Z,95359.59
2018-02-08T19:07:58.016Z,95361.33
2018-02-08T19:10:26.289Z,95359.63
2018-02-08T19:12:54.563Z,95357.63
2018-02-08T19:15:22.830Z,95350.61
2018-02-08T19:17:51.875Z,95344.54
2018-02-08T19:20:20.145Z,95344.61
2018-02-08T19:22:48.412Z,95339.88
2018-02-08T19:25:17.477Z,95337.76
2018-02-08T19:27:45.761Z,95338.06
2018-02-08T19:30:14.034Z,95335.66
2018-02-08T19:32:42.340Z,95331.84
2018-02-08T19:35:10.608Z,95338.13
2018-02-08T19:37:38.885Z,95337.78
2018-02-08T19:40:07.145Z,95335.44
2018-02-08T19:42:36.212Z,95342.29
2018-02-08T19:45:04.443Z,95338.77
2018-02-08T19:47:33.489Z,95337.83
2018-02-08T19:50:04.749Z,95340.62
2018-02-08T19:52:33.033Z,95341.20
2018-02-08T19:55:01.321Z,95342.07
2018-02-08T19:57:29.603Z,95342.86
2018-02-08T19:59:57.900Z,95340.56
2018-02-08T20:02:26.177Z,95342.79
2018-02-08T20:04:54.439Z,95347.98
2018-02-08T20:07:23.492Z,95342.81
2018-02-08T20:09:51.764Z,95329.42
2018-02-08T20:12:20.065Z,95333.87
2018-02-08T20:14:49.255Z,95327.71
2018-02-08T20:17:17.530Z,95334.33
2018-02-08T20:19:46.567Z,95334.05
2018-02-08T20:22:14.835Z,95331.53
2018-02-08T20:24:43.097Z,95331.00
2018-02-08T20:27:12.141Z,95331.23
2018-02-08T20:29:40.413Z,95328.31
2018-02-08T20:32:08.688Z,95331.40
2018-02-08T20:34:37.725Z,95327.48
2018-02-08T20:37:06.009Z,95333.99
2018-02-08T20:39:34.272Z,95330.89
2018-02-08T20:42:03.317Z,95334.17
2018-02-08T20:44:31.595Z,95332.41
2018-02-08T20:46:59.871Z,95331.25
2018-02-08T20:49:28.144Z,95329.13
2018-02-08T20:51:57.184Z,95326.26
2018-02-08T20:54:25.448Z,95330.48
2018-02-08T20:56:53.726Z,95327.02
2018-02-08T20:59:22.760Z,95332.16
2018-02-08T21:01:51.041Z,95328.59
2018-02-08T21:04:19.297Z,95322.79
2018-02-08T21:06:48.338Z,95322.25
2018-02-08T21:09:16.620Z,95320.38
2018-02-08T21:11:44.888Z,95317.39
2018-02-08T21:14:13.925Z,95308.83
2018-02-08T21:16:42.195Z,95310.91
2018-02-08T21:19:10.469Z,95309.85
2018-02-08T21:21:52.863Z,95308.19
2018-02-08T21:24:21.128Z,95308.66
2018-02-08T21:26:49.400Z,95304.74
2018-02-08T21:29:17.694Z,95306.57
2018-02-08T21:31:45.947Z,95299.84
2018-02-08T21:34:15.009Z,95307.59
2018-02-08T21:36:43.302Z,95303.55
2018-02-08T21:39:22.689Z,95298.64
2018-02-08T21:41:51.730Z,95300.38
2018-02-08T21:44:20.032Z,95295.97
2018-02-08T21:46:48.308Z,95295.40
2018-02-08T21:49:20.284Z,95300.03
2018-02-08T21:51:48.559Z,95296.30
2018-02-08T21:54:16.849Z,95296.00
2018-02-08T21:56:45.111Z,95292.94
2018-02-08T21:59:14.164Z,95296.84
2018-02-08T22:01:42.427Z,95293.32
2018-02-08T22:04:10.708Z,95291.48
2018-02-08T22:06:38.987Z,95297.78
2018-02-08T22:09:08.228Z,95294.77
2018-02-08T22:11:36.513Z,95299.88
2018-02-08T22:14:04.791Z,95293.95
2018-02-08T22:16:33.069Z,95297.61
2018-02-08T22:19:02.117Z,95303.05
2018-02-08T22:21:30.401Z,95298.84
2018-02-08T22:23:58.693Z,95298.59
2018-02-08T22:26:27.884Z,95294.09
2018-02-08T22:28:56.162Z,95296.30
2018-02-08T22:31:25.380Z,95288.20
2018-02-08T22:33:53.671Z,95283.06
2018-02-08T22:36:21.948Z,95287.91
2018-02-08T22:38:53.964Z,95292.34
2018-02-08T22:41:22.240Z,95289.71
2018-02-08T22:43:50.524Z,95290.45
2018-02-08T22:46:18.804Z,95288.42
2018-02-08T22:48:47.079Z,95286.86
2018-02-08T22:51:15.347Z,95288.20
2018-02-08T22:53:44.401Z,95291.19
2018-02-08T22:56:12.666Z,95288.09
2018-02-08T22:58:40.951Z,95287.62
2018-02-08T23:01:09.219Z,95290.09
2018-02-08T23:03:58.471Z,95292.83
2018-02-08T23:06:26.750Z,95296.96
2018-02-08T23:08:55.032Z,95298.55
2018-02-08T23:11:23.309Z,95296.89
2018-02-08T23:13:51.583Z,95291.75
2018-02-08T23:16:19.858Z,95290.36
2018-02-08T23:18:48.137Z,95288.61
2018-02-08T23:21:17.166Z,95285.27
2018-02-08T23:23:45.451Z,95286.88
2018-02-08T23:26:14.642Z,95279.11
2018-02-08T23:28:42.930Z,95279.64
2018-02-08T23:31:11.958Z,95277.03
2018-02-08T23:33:40.235Z,95278.88
2018-02-08T23:36:08.490Z,95280.33
2018-02-08T23:38:36.763Z,95274.68
2018-02-08T23:41:05.035Z,95268.14
2018-02-08T23:43:33.302Z,95273.70
2018-02-08T23:46:01.567Z,95267.80
2018-02-08T23:48:49.131Z,95270.44
2018-02-08T23:51:17.404Z,95271.70
2018-02-08T23:54:00.986Z,95270.12
2018-02-08T23:56:29.258Z,95277.76
2018-02-08T23:59:22.061Z,95271.97
